sensor_id;sensor_type;location;lat;lon;timestamp;temperature;humidity
42141;DHT22;27809;51.864;5.646;2023-12-20T00:02:13;6.90;99.90
42141;DHT22;27809;51.864;5.646;2023-12-20T00:04:39;6.90;99.90
42141;DHT22;27809;51.864;5.646;2023-12-20T00:07:05;6.90;99.90
42141;DHT22;27809;51.864;5.646;2023-12-20T00:09:30;6.90;99.90
42141;DHT22;27809;51.864;5.646;2023-12-20T00:11:56;6.90;99.90
42141;DHT22;27809;51.864;5.646;2023-12-20T00:14:22;7.00;99.90
42141;DHT22;27809;51.864;5.646;2023-12-20T00:16:47;7.00;99.90
42141;DHT22;27809;51.864;5.646;2023-12-20T00:19:13;7.00;99.90
42141;DHT22;27809;51.864;5.646;2023-12-20T00:21:38;7.10;99.90
42141;DHT22;27809;51.864;5.646;2023-12-20T00:24:05;7.10;99.90
42141;DHT22;27809;51.864;5.646;2023-12-20T00:26:30;7.10;99.90
42141;DHT22;27809;51.864;5.646;2023-12-20T00:28:56;7.20;99.90
42141;DHT22;27809;51.864;5.646;2023-12-20T00:31:21;7.20;99.90
42141;DHT22;27809;51.864;5.646;2023-12-20T00:33:47;7.20;99.90
42141;DHT22;27809;51.864;5.646;2023-12-20T00:36:13;7.20;99.90
42141;DHT22;27809;51.864;5.646;2023-12-20T00:38:38;7.20;99.90
42141;DHT22;27809;51.864;5.646;2023-12-20T00:41:04;7.20;99.90
42141;DHT22;27809;51.864;5.646;2023-12-20T00:43:29;7.10;99.90
42141;DHT22;27809;51.864;5.646;2023-12-20T00:45:55;7.10;99.90
42141;DHT22;27809;51.864;5.646;2023-12-20T00:48:21;7.10;99.90
42141;DHT22;27809;51.864;5.646;2023-12-20T00:50:46;7.00;99.90
42141;DHT22;27809;51.864;5.646;2023-12-20T00:53:12;6.90;99.90
42141;DHT22;27809;51.864;5.646;2023-12-20T00:55:38;6.90;99.90
42141;DHT22;27809;51.864;5.646;2023-12-20T00:58:03;6.70;99.90
42141;DHT22;27809;51.864;5.646;2023-12-20T01:00:29;6.70;99.90
42141;DHT22;27809;51.864;5.646;2023-12-20T01:02:54;6.60;99.90
42141;DHT22;27809;51.864;5.646;2023-12-20T01:05:20;6.60;99.90
42141;DHT22;27809;51.864;5.646;2023-12-20T01:07:48;6.60;99.90
42141;DHT22;27809;51.864;5.646;2023-12-20T01:10:14;6.60;99.90
42141;DHT22;27809;51.864;5.646;2023-12-20T01:12:40;6.50;99.90
42141;DHT22;27809;51.864;5.646;2023-12-20T01:15:06;6.50;99.90
42141;DHT22;27809;51.864;5.646;2023-12-20T01:17:31;6.40;99.90
42141;DHT22;27809;51.864;5.646;2023-12-20T01:19:57;6.40;99.90
42141;DHT22;27809;51.864;5.646;2023-12-20T01:22:23;6.40;99.90
42141;DHT22;27809;51.864;5.646;2023-12-20T01:24:49;6.30;99.90
42141;DHT22;27809;51.864;5.646;2023-12-20T01:27:14;6.30;99.90
42141;DHT22;27809;51.864;5.646;2023-12-20T01:29:40;6.30;99.90
42141;DHT22;27809;51.864;5.646;2023-12-20T01:32:06;6.20;99.90
42141;DHT22;27809;51.864;5.646;2023-12-20T01:34:32;6.20;99.90
42141;DHT22;27809;51.864;5.646;2023-12-20T01:36:57;6.10;99.90
42141;DHT22;27809;51.864;5.646;2023-12-20T01:39:23;6.10;99.90
42141;DHT22;27809;51.864;5.646;2023-12-20T01:41:48;6.10;99.90
42141;DHT22;27809;51.864;5.646;2023-12-20T01:44:14;6.10;99.90
42141;DHT22;27809;51.864;5.646;2023-12-20T01:46:40;6.20;99.90
42141;DHT22;27809;51.864;5.646;2023-12-20T01:49:06;6.20;99.90
42141;DHT22;27809;51.864;5.646;2023-12-20T01:51:32;6.20;99.90
42141;DHT22;27809;51.864;5.646;2023-12-20T01:53:59;6.20;99.90
42141;DHT22;27809;51.864;5.646;2023-12-20T01:56:26;6.20;99.90
42141;DHT22;27809;51.864;5.646;2023-12-20T01:58:53;6.20;99.90
42141;DHT22;27809;51.864;5.646;2023-12-20T02:01:19;6.10;99.90
42141;DHT22;27809;51.864;5.646;2023-12-20T02:03:45;6.10;99.90
42141;DHT22;27809;51.864;5.646;2023-12-20T02:06:11;6.20;99.90
42141;DHT22;27809;51.864;5.646;2023-12-20T02:08:37;6.20;99.90
42141;DHT22;27809;51.864;5.646;2023-12-20T02:11:03;6.20;99.90
42141;DHT22;27809;51.864;5.646;2023-12-20T02:13:28;6.20;99.90
42141;DHT22;27809;51.864;5.646;2023-12-20T02:15:57;6.30;99.90
42141;DHT22;27809;51.864;5.646;2023-12-20T02:18:22;6.30;99.90
42141;DHT22;27809;51.864;5.646;2023-12-20T02:20:48;6.20;99.90
42141;DHT22;27809;51.864;5.646;2023-12-20T02:23:14;6.20;99.90
42141;DHT22;27809;51.864;5.646;2023-12-20T02:25:39;6.10;99.90
42141;DHT22;27809;51.864;5.646;2023-12-20T02:28:05;6.10;99.90
42141;DHT22;27809;51.864;5.646;2023-12-20T02:30:32;6.10;99.90
42141;DHT22;27809;51.864;5.646;2023-12-20T02:32:59;6.10;99.90
42141;DHT22;27809;51.864;5.646;2023-12-20T02:35:26;6.10;99.90
42141;DHT22;27809;51.864;5.646;2023-12-20T02:37:51;6.10;99.90
42141;DHT22;27809;51.864;5.646;2023-12-20T02:40:17;6.20;99.90
42141;DHT22;27809;51.864;5.646;2023-12-20T02:42:43;6.20;99.90
42141;DHT22;27809;51.864;5.646;2023-12-20T02:45:08;6.20;99.90
42141;DHT22;27809;51.864;5.646;2023-12-20T02:47:34;6.20;99.90
42141;DHT22;27809;51.864;5.646;2023-12-20T02:50:00;6.20;99.90
42141;DHT22;27809;51.864;5.646;2023-12-20T02:52:27;6.20;99.90
42141;DHT22;27809;51.864;5.646;2023-12-20T02:54:52;6.20;99.90
42141;DHT22;27809;51.864;5.646;2023-12-20T02:57:18;6.20;99.90
42141;DHT22;27809;51.864;5.646;2023-12-20T02:59:43;6.20;99.90
42141;DHT22;27809;51.864;5.646;2023-12-20T03:02:09;6.20;99.90
42141;DHT22;27809;51.864;5.646;2023-12-20T03:04:35;6.20;99.90
42141;DHT22;27809;51.864;5.646;2023-12-20T03:07:00;6.20;99.90
42141;DHT22;27809;51.864;5.646;2023-12-20T03:09:26;6.30;99.90
42141;DHT22;27809;51.864;5.646;2023-12-20T03:11:51;6.30;99.90
42141;DHT22;27809;51.864;5.646;2023-12-20T03:14:17;6.30;99.90
42141;DHT22;27809;51.864;5.646;2023-12-20T03:16:47;6.30;99.90
42141;DHT22;27809;51.864;5.646;2023-12-20T03:19:15;6.30;99.90
42141;DHT22;27809;51.864;5.646;2023-12-20T03:21:41;6.30;99.90
42141;DHT22;27809;51.864;5.646;2023-12-20T03:24:06;6.20;99.90
42141;DHT22;27809;51.864;5.646;2023-12-20T03:26:32;6.20;99.90
42141;DHT22;27809;51.864;5.646;2023-12-20T03:28:58;6.20;99.90
42141;DHT22;27809;51.864;5.646;2023-12-20T03:31:23;6.20;99.90
42141;DHT22;27809;51.864;5.646;2023-12-20T03:33:49;6.20;99.90
42141;DHT22;27809;51.864;5.646;2023-12-20T03:36:16;6.10;99.90
42141;DHT22;27809;51.864;5.646;2023-12-20T03:38:42;6.00;99.90
42141;DHT22;27809;51.864;5.646;2023-12-20T03:41:07;6.00;99.90
42141;DHT22;27809;51.864;5.646;2023-12-20T03:43:33;5.90;99.90
42141;DHT22;27809;51.864;5.646;2023-12-20T03:45:58;5.90;99.90
42141;DHT22;27809;51.864;5.646;2023-12-20T03:48:25;5.90;99.90
42141;DHT22;27809;51.864;5.646;2023-12-20T03:50:51;5.90;99.90
42141;DHT22;27809;51.864;5.646;2023-12-20T03:53:16;5.90;99.90
42141;DHT22;27809;51.864;5.646;2023-12-20T03:55:42;6.00;99.90
42141;DHT22;27809;51.864;5.646;2023-12-20T03:58:08;6.00;99.90
42141;DHT22;27809;51.864;5.646;2023-12-20T04:00:33;6.00;99.90
42141;DHT22;27809;51.864;5.646;2023-12-20T04:02:59;6.10;99.90
42141;DHT22;27809;51.864;5.646;2023-12-20T04:05:25;6.10;99.90
42141;DHT22;27809;51.864;5.646;2023-12-20T04:07:50;6.20;99.90
42141;DHT22;27809;51.864;5.646;2023-12-20T04:10:16;6.20;99.90
42141;DHT22;27809;51.864;5.646;2023-12-20T04:12:41;6.30;99.90
42141;DHT22;27809;51.864;5.646;2023-12-20T04:15:07;6.40;99.90
42141;DHT22;27809;51.864;5.646;2023-12-20T04:17:35;6.40;99.90
42141;DHT22;27809;51.864;5.646;2023-12-20T04:20:01;6.40;99.90
42141;DHT22;27809;51.864;5.646;2023-12-20T04:22:27;6.40;99.90
42141;DHT22;27809;51.864;5.646;2023-12-20T04:24:53;6.50;99.90
42141;DHT22;27809;51.864;5.646;2023-12-20T04:27:18;6.50;99.90
42141;DHT22;27809;51.864;5.646;2023-12-20T04:29:44;6.50;99.90
42141;DHT22;27809;51.864;5.646;2023-12-20T04:32:10;6.60;99.90
42141;DHT22;27809;51.864;5.646;2023-12-20T04:34:36;6.60;99.90
42141;DHT22;27809;51.864;5.646;2023-12-20T04:37:02;6.70;99.90
42141;DHT22;27809;51.864;5.646;2023-12-20T04:39:27;6.70;99.90
42141;DHT22;27809;51.864;5.646;2023-12-20T04:41:53;6.70;99.90
42141;DHT22;27809;51.864;5.646;2023-12-20T04:44:18;6.70;99.90
42141;DHT22;27809;51.864;5.646;2023-12-20T04:46:44;6.70;99.90
42141;DHT22;27809;51.864;5.646;2023-12-20T04:49:09;6.70;99.90
42141;DHT22;27809;51.864;5.646;2023-12-20T04:51:35;6.70;99.90
42141;DHT22;27809;51.864;5.646;2023-12-20T04:54:01;6.70;99.90
42141;DHT22;27809;51.864;5.646;2023-12-20T04:56:27;6.70;99.90
42141;DHT22;27809;51.864;5.646;2023-12-20T04:58:52;6.70;99.90
42141;DHT22;27809;51.864;5.646;2023-12-20T05:01:18;6.80;99.90
42141;DHT22;27809;51.864;5.646;2023-12-20T05:03:43;6.80;99.90
42141;DHT22;27809;51.864;5.646;2023-12-20T05:06:10;6.90;99.90
42141;DHT22;27809;51.864;5.646;2023-12-20T05:08:35;6.90;99.90
42141;DHT22;27809;51.864;5.646;2023-12-20T05:11:01;7.00;99.90
42141;DHT22;27809;51.864;5.646;2023-12-20T05:13:27;7.00;99.90
42141;DHT22;27809;51.864;5.646;2023-12-20T05:15:52;7.10;99.90
42141;DHT22;27809;51.864;5.646;2023-12-20T05:18:18;7.20;99.90
42141;DHT22;27809;51.864;5.646;2023-12-20T05:20:44;7.20;99.90
42141;DHT22;27809;51.864;5.646;2023-12-20T05:23:09;7.30;99.90
42141;DHT22;27809;51.864;5.646;2023-12-20T05:25:35;7.30;99.90
42141;DHT22;27809;51.864;5.646;2023-12-20T05:28:00;7.30;99.90
42141;DHT22;27809;51.864;5.646;2023-12-20T05:30:26;7.40;99.90
42141;DHT22;27809;51.864;5.646;2023-12-20T05:32:52;7.40;99.90
42141;DHT22;27809;51.864;5.646;2023-12-20T05:35:17;7.40;99.90
42141;DHT22;27809;51.864;5.646;2023-12-20T05:37:43;7.50;99.90
42141;DHT22;27809;51.864;5.646;2023-12-20T05:40:09;7.50;99.90
42141;DHT22;27809;51.864;5.646;2023-12-20T05:42:37;7.50;99.90
42141;DHT22;27809;51.864;5.646;2023-12-20T05:45:04;7.50;99.90
42141;DHT22;27809;51.864;5.646;2023-12-20T05:47:30;7.50;99.90
42141;DHT22;27809;51.864;5.646;2023-12-20T05:49:55;7.50;99.90
42141;DHT22;27809;51.864;5.646;2023-12-20T05:52:21;7.60;99.90
42141;DHT22;27809;51.864;5.646;2023-12-20T05:54:47;7.60;99.90
42141;DHT22;27809;51.864;5.646;2023-12-20T05:57:12;7.60;99.90
42141;DHT22;27809;51.864;5.646;2023-12-20T05:59:38;7.60;99.90
42141;DHT22;27809;51.864;5.646;2023-12-20T06:02:04;7.60;99.90
42141;DHT22;27809;51.864;5.646;2023-12-20T06:04:30;7.70;99.90
42141;DHT22;27809;51.864;5.646;2023-12-20T06:06:55;7.70;99.90
42141;DHT22;27809;51.864;5.646;2023-12-20T06:09:21;7.70;99.90
42141;DHT22;27809;51.864;5.646;2023-12-20T06:11:47;7.70;99.90
42141;DHT22;27809;51.864;5.646;2023-12-20T06:14:12;7.70;99.90
42141;DHT22;27809;51.864;5.646;2023-12-20T06:16:38;7.70;99.90
42141;DHT22;27809;51.864;5.646;2023-12-20T06:19:03;7.70;99.90
42141;DHT22;27809;51.864;5.646;2023-12-20T06:21:29;7.60;99.90
42141;DHT22;27809;51.864;5.646;2023-12-20T06:23:55;7.60;99.90
42141;DHT22;27809;51.864;5.646;2023-12-20T06:26:20;7.60;99.90
42141;DHT22;27809;51.864;5.646;2023-12-20T06:28:46;7.60;99.90
42141;DHT22;27809;51.864;5.646;2023-12-20T06:31:11;7.60;99.90
42141;DHT22;27809;51.864;5.646;2023-12-20T06:33:37;7.60;99.90
42141;DHT22;27809;51.864;5.646;2023-12-20T06:36:06;7.60;99.90
42141;DHT22;27809;51.864;5.646;2023-12-20T06:38:31;7.60;99.90
42141;DHT22;27809;51.864;5.646;2023-12-20T06:40:57;7.60;99.90
42141;DHT22;27809;51.864;5.646;2023-12-20T06:43:24;7.60;99.90
42141;DHT22;27809;51.864;5.646;2023-12-20T06:45:49;7.60;99.90
42141;DHT22;27809;51.864;5.646;2023-12-20T06:48:16;7.60;99.90
42141;DHT22;27809;51.864;5.646;2023-12-20T06:50:41;7.60;99.90
42141;DHT22;27809;51.864;5.646;2023-12-20T06:53:07;7.60;99.90
42141;DHT22;27809;51.864;5.646;2023-12-20T06:55:36;7.60;99.90
42141;DHT22;27809;51.864;5.646;2023-12-20T06:58:03;7.60;99.90
42141;DHT22;27809;51.864;5.646;2023-12-20T07:00:30;7.60;99.90
42141;DHT22;27809;51.864;5.646;2023-12-20T07:02:56;7.60;99.90
42141;DHT22;27809;51.864;5.646;2023-12-20T07:05:21;7.60;99.90
42141;DHT22;27809;51.864;5.646;2023-12-20T07:07:47;7.60;99.90
42141;DHT22;27809;51.864;5.646;2023-12-20T07:10:13;7.60;99.90
42141;DHT22;27809;51.864;5.646;2023-12-20T07:12:39;7.60;99.90
42141;DHT22;27809;51.864;5.646;2023-12-20T07:15:05;7.60;99.90
42141;DHT22;27809;51.864;5.646;2023-12-20T07:17:34;7.60;99.90
42141;DHT22;27809;51.864;5.646;2023-12-20T07:20:00;7.70;99.90
42141;DHT22;27809;51.864;5.646;2023-12-20T07:22:29;7.70;99.90
42141;DHT22;27809;51.864;5.646;2023-12-20T07:24:57;7.70;99.90
42141;DHT22;27809;51.864;5.646;2023-12-20T07:27:23;7.70;99.90
42141;DHT22;27809;51.864;5.646;2023-12-20T07:29:48;7.70;99.90
42141;DHT22;27809;51.864;5.646;2023-12-20T07:32:14;7.70;99.90
42141;DHT22;27809;51.864;5.646;2023-12-20T07:34:39;7.70;99.90
42141;DHT22;27809;51.864;5.646;2023-12-20T07:37:05;7.60;99.90
42141;DHT22;27809;51.864;5.646;2023-12-20T07:39:30;7.70;99.90
42141;DHT22;27809;51.864;5.646;2023-12-20T07:41:56;7.70;99.90
42141;DHT22;27809;51.864;5.646;2023-12-20T07:44:22;7.70;99.90
42141;DHT22;27809;51.864;5.646;2023-12-20T07:46:47;7.70;99.90
42141;DHT22;27809;51.864;5.646;2023-12-20T07:49:14;7.70;99.90
42141;DHT22;27809;51.864;5.646;2023-12-20T07:51:39;7.70;99.90
42141;DHT22;27809;51.864;5.646;2023-12-20T07:54:05;7.70;99.90
42141;DHT22;27809;51.864;5.646;2023-12-20T07:56:30;7.70;99.90
42141;DHT22;27809;51.864;5.646;2023-12-20T07:58:56;7.70;99.90
42141;DHT22;27809;51.864;5.646;2023-12-20T08:01:22;7.80;99.90
42141;DHT22;27809;51.864;5.646;2023-12-20T08:03:49;7.80;99.90
42141;DHT22;27809;51.864;5.646;2023-12-20T08:06:14;7.80;99.90
42141;DHT22;27809;51.864;5.646;2023-12-20T08:08:40;7.80;99.90
42141;DHT22;27809;51.864;5.646;2023-12-20T08:11:05;7.80;99.90
42141;DHT22;27809;51.864;5.646;2023-12-20T08:13:31;7.90;99.90
42141;DHT22;27809;51.864;5.646;2023-12-20T08:15:56;7.90;99.90
42141;DHT22;27809;51.864;5.646;2023-12-20T08:18:22;7.90;99.90
42141;DHT22;27809;51.864;5.646;2023-12-20T08:20:48;7.90;99.90
42141;DHT22;27809;51.864;5.646;2023-12-20T08:23:14;7.90;99.90
42141;DHT22;27809;51.864;5.646;2023-12-20T08:25:40;8.00;99.90
42141;DHT22;27809;51.864;5.646;2023-12-20T08:28:05;8.10;99.90
42141;DHT22;27809;51.864;5.646;2023-12-20T08:30:31;8.20;99.90
42141;DHT22;27809;51.864;5.646;2023-12-20T08:32:59;8.20;99.90
42141;DHT22;27809;51.864;5.646;2023-12-20T08:35:25;8.20;99.90
42141;DHT22;27809;51.864;5.646;2023-12-20T08:37:51;8.20;99.90
42141;DHT22;27809;51.864;5.646;2023-12-20T08:40:16;8.20;99.90
42141;DHT22;27809;51.864;5.646;2023-12-20T08:42:42;8.20;99.90
42141;DHT22;27809;51.864;5.646;2023-12-20T08:45:08;8.20;99.90
42141;DHT22;27809;51.864;5.646;2023-12-20T08:47:33;8.20;99.90
42141;DHT22;27809;51.864;5.646;2023-12-20T08:49:59;8.20;99.90
42141;DHT22;27809;51.864;5.646;2023-12-20T08:52:25;8.30;99.90
42141;DHT22;27809;51.864;5.646;2023-12-20T08:54:53;8.20;99.90
42141;DHT22;27809;51.864;5.646;2023-12-20T08:57:22;8.20;99.90
42141;DHT22;27809;51.864;5.646;2023-12-20T08:59:49;8.20;99.90
42141;DHT22;27809;51.864;5.646;2023-12-20T09:02:15;8.20;99.90
42141;DHT22;27809;51.864;5.646;2023-12-20T09:04:41;8.30;99.90
42141;DHT22;27809;51.864;5.646;2023-12-20T09:07:06;8.20;99.90
42141;DHT22;27809;51.864;5.646;2023-12-20T09:09:33;8.20;99.90
42141;DHT22;27809;51.864;5.646;2023-12-20T09:11:59;8.20;99.90
42141;DHT22;27809;51.864;5.646;2023-12-20T09:14:25;8.20;99.90
42141;DHT22;27809;51.864;5.646;2023-12-20T09:16:50;8.20;99.90
42141;DHT22;27809;51.864;5.646;2023-12-20T09:19:17;8.20;99.90
42141;DHT22;27809;51.864;5.646;2023-12-20T09:21:43;8.20;99.90
42141;DHT22;27809;51.864;5.646;2023-12-20T09:24:08;8.20;99.90
42141;DHT22;27809;51.864;5.646;2023-12-20T09:26:34;8.20;99.90
42141;DHT22;27809;51.864;5.646;2023-12-20T09:29:00;8.20;99.90
42141;DHT22;27809;51.864;5.646;2023-12-20T09:31:25;8.20;99.90
42141;DHT22;27809;51.864;5.646;2023-12-20T09:33:51;8.20;99.90
42141;DHT22;27809;51.864;5.646;2023-12-20T09:36:16;8.20;99.90
42141;DHT22;27809;51.864;5.646;2023-12-20T09:38:42;8.20;99.90
42141;DHT22;27809;51.864;5.646;2023-12-20T09:41:07;8.20;99.90
42141;DHT22;27809;51.864;5.646;2023-12-20T09:43:37;8.10;99.90
42141;DHT22;27809;51.864;5.646;2023-12-20T09:46:05;8.10;99.90
42141;DHT22;27809;51.864;5.646;2023-12-20T09:48:31;8.10;99.90
42141;DHT22;27809;51.864;5.646;2023-12-20T09:50:58;8.10;99.90
42141;DHT22;27809;51.864;5.646;2023-12-20T09:53:25;8.20;99.90
42141;DHT22;27809;51.864;5.646;2023-12-20T09:55:58;8.30;99.90
42141;DHT22;27809;51.864;5.646;2023-12-20T09:58:27;8.30;99.90
42141;DHT22;27809;51.864;5.646;2023-12-20T10:00:54;8.30;99.90
42141;DHT22;27809;51.864;5.646;2023-12-20T10:03:24;8.40;99.90
42141;DHT22;27809;51.864;5.646;2023-12-20T10:05:54;8.30;99.90
42141;DHT22;27809;51.864;5.646;2023-12-20T10:08:21;8.30;99.90
42141;DHT22;27809;51.864;5.646;2023-12-20T10:10:48;8.30;99.90
42141;DHT22;27809;51.864;5.646;2023-12-20T10:13:13;8.30;99.90
42141;DHT22;27809;51.864;5.646;2023-12-20T10:15:40;8.30;99.90
42141;DHT22;27809;51.864;5.646;2023-12-20T10:18:06;8.30;99.90
42141;DHT22;27809;51.864;5.646;2023-12-20T10:20:32;8.30;99.90
42141;DHT22;27809;51.864;5.646;2023-12-20T10:22:59;8.30;99.90
42141;DHT22;27809;51.864;5.646;2023-12-20T10:25:25;8.30;99.90
42141;DHT22;27809;51.864;5.646;2023-12-20T10:28:10;8.30;99.90
42141;DHT22;27809;51.864;5.646;2023-12-20T10:30:36;8.30;99.90
42141;DHT22;27809;51.864;5.646;2023-12-20T10:33:02;8.30;99.90
42141;DHT22;27809;51.864;5.646;2023-12-20T10:35:27;8.30;99.90
42141;DHT22;27809;51.864;5.646;2023-12-20T10:37:56;8.30;99.90
42141;DHT22;27809;51.864;5.646;2023-12-20T10:40:25;8.30;99.90
42141;DHT22;27809;51.864;5.646;2023-12-20T10:42:53;8.30;99.90
42141;DHT22;27809;51.864;5.646;2023-12-20T10:45:19;8.30;99.90
42141;DHT22;27809;51.864;5.646;2023-12-20T10:47:46;8.30;99.90
42141;DHT22;27809;51.864;5.646;2023-12-20T10:50:12;8.30;99.90
42141;DHT22;27809;51.864;5.646;2023-12-20T10:52:38;8.40;99.90
42141;DHT22;27809;51.864;5.646;2023-12-20T10:55:05;8.40;99.90
42141;DHT22;27809;51.864;5.646;2023-12-20T10:57:31;8.40;99.90
42141;DHT22;27809;51.864;5.646;2023-12-20T11:00:00;8.40;99.90
42141;DHT22;27809;51.864;5.646;2023-12-20T11:02:31;8.50;99.90
42141;DHT22;27809;51.864;5.646;2023-12-20T11:05:10;8.50;99.90
42141;DHT22;27809;51.864;5.646;2023-12-20T11:07:45;8.60;99.90
42141;DHT22;27809;51.864;5.646;2023-12-20T11:10:29;8.60;99.90
42141;DHT22;27809;51.864;5.646;2023-12-20T11:13:01;8.70;99.90
42141;DHT22;27809;51.864;5.646;2023-12-20T11:15:30;8.70;99.90
42141;DHT22;27809;51.864;5.646;2023-12-20T11:17:56;8.70;99.90
42141;DHT22;27809;51.864;5.646;2023-12-20T11:20:38;8.80;99.90
42141;DHT22;27809;51.864;5.646;2023-12-20T11:23:04;8.80;99.90
42141;DHT22;27809;51.864;5.646;2023-12-20T11:25:53;8.80;99.90
42141;DHT22;27809;51.864;5.646;2023-12-20T11:28:23;8.90;99.90
42141;DHT22;27809;51.864;5.646;2023-12-20T11:33:23;8.90;99.90
42141;DHT22;27809;51.864;5.646;2023-12-20T11:35:49;8.90;99.90
42141;DHT22;27809;51.864;5.646;2023-12-20T11:38:14;8.90;99.90
42141;DHT22;27809;51.864;5.646;2023-12-20T11:40:42;8.90;99.90
42141;DHT22;27809;51.864;5.646;2023-12-20T11:43:08;8.90;99.90
42141;DHT22;27809;51.864;5.646;2023-12-20T11:45:34;8.90;99.90
42141;DHT22;27809;51.864;5.646;2023-12-20T11:48:03;8.90;99.90
42141;DHT22;27809;51.864;5.646;2023-12-20T11:50:29;8.90;99.90
42141;DHT22;27809;51.864;5.646;2023-12-20T11:52:56;8.90;99.90
42141;DHT22;27809;51.864;5.646;2023-12-20T11:55:23;8.90;99.90
42141;DHT22;27809;51.864;5.646;2023-12-20T11:57:51;8.90;99.90
42141;DHT22;27809;51.864;5.646;2023-12-20T12:00:18;9.00;99.90
42141;DHT22;27809;51.864;5.646;2023-12-20T12:02:55;9.00;99.90
42141;DHT22;27809;51.864;5.646;2023-12-20T12:05:20;9.00;99.90
42141;DHT22;27809;51.864;5.646;2023-12-20T12:07:46;8.90;99.90
42141;DHT22;27809;51.864;5.646;2023-12-20T12:10:12;8.90;99.90
42141;DHT22;27809;51.864;5.646;2023-12-20T12:12:37;8.90;99.90
42141;DHT22;27809;51.864;5.646;2023-12-20T12:15:03;8.90;99.90
42141;DHT22;27809;51.864;5.646;2023-12-20T12:17:29;8.90;99.90
42141;DHT22;27809;51.864;5.646;2023-12-20T12:20:05;9.00;99.90
42141;DHT22;27809;51.864;5.646;2023-12-20T12:22:31;9.00;99.90
42141;DHT22;27809;51.864;5.646;2023-12-20T12:24:59;9.00;99.90
42141;DHT22;27809;51.864;5.646;2023-12-20T12:27:34;9.10;99.90
42141;DHT22;27809;51.864;5.646;2023-12-20T12:30:05;9.10;99.90
42141;DHT22;27809;51.864;5.646;2023-12-20T12:32:32;9.20;99.90
42141;DHT22;27809;51.864;5.646;2023-12-20T12:34:58;9.20;99.90
42141;DHT22;27809;51.864;5.646;2023-12-20T12:37:24;9.30;99.90
42141;DHT22;27809;51.864;5.646;2023-12-20T12:39:50;9.30;99.90
42141;DHT22;27809;51.864;5.646;2023-12-20T12:42:15;9.30;99.90
42141;DHT22;27809;51.864;5.646;2023-12-20T12:44:41;9.30;99.90
42141;DHT22;27809;51.864;5.646;2023-12-20T12:47:06;9.30;99.90
42141;DHT22;27809;51.864;5.646;2023-12-20T12:49:33;9.30;99.90
42141;DHT22;27809;51.864;5.646;2023-12-20T12:51:59;9.40;99.90
42141;DHT22;27809;51.864;5.646;2023-12-20T12:54:24;9.40;99.90
42141;DHT22;27809;51.864;5.646;2023-12-20T12:56:50;9.40;99.90
42141;DHT22;27809;51.864;5.646;2023-12-20T12:59:16;9.30;99.90
42141;DHT22;27809;51.864;5.646;2023-12-20T13:01:42;9.40;99.90
42141;DHT22;27809;51.864;5.646;2023-12-20T13:04:08;9.40;99.90
42141;DHT22;27809;51.864;5.646;2023-12-20T13:06:37;9.40;99.90
42141;DHT22;27809;51.864;5.646;2023-12-20T13:09:03;9.40;99.90
42141;DHT22;27809;51.864;5.646;2023-12-20T13:11:30;9.40;99.90
42141;DHT22;27809;51.864;5.646;2023-12-20T13:13:57;9.40;99.90
42141;DHT22;27809;51.864;5.646;2023-12-20T13:16:23;9.40;99.90
42141;DHT22;27809;51.864;5.646;2023-12-20T13:18:49;9.40;99.90
42141;DHT22;27809;51.864;5.646;2023-12-20T13:21:15;9.50;99.90
42141;DHT22;27809;51.864;5.646;2023-12-20T13:23:40;9.50;99.90
42141;DHT22;27809;51.864;5.646;2023-12-20T13:26:07;9.50;99.90
42141;DHT22;27809;51.864;5.646;2023-12-20T13:28:32;9.50;99.90
42141;DHT22;27809;51.864;5.646;2023-12-20T13:30:58;9.50;99.90
42141;DHT22;27809;51.864;5.646;2023-12-20T13:33:23;9.50;99.90
42141;DHT22;27809;51.864;5.646;2023-12-20T13:35:49;9.50;99.90
42141;DHT22;27809;51.864;5.646;2023-12-20T13:38:15;9.60;99.90
42141;DHT22;27809;51.864;5.646;2023-12-20T13:40:40;9.60;99.90
42141;DHT22;27809;51.864;5.646;2023-12-20T13:43:06;9.70;99.90
42141;DHT22;27809;51.864;5.646;2023-12-20T13:45:31;9.70;99.90
42141;DHT22;27809;51.864;5.646;2023-12-20T13:47:58;9.70;99.90
42141;DHT22;27809;51.864;5.646;2023-12-20T13:50:24;9.80;99.90
42141;DHT22;27809;51.864;5.646;2023-12-20T13:52:49;9.80;99.90
42141;DHT22;27809;51.864;5.646;2023-12-20T13:55:15;9.80;99.90
42141;DHT22;27809;51.864;5.646;2023-12-20T13:57:41;9.80;99.90
42141;DHT22;27809;51.864;5.646;2023-12-20T14:00:07;9.90;99.90
42141;DHT22;27809;51.864;5.646;2023-12-20T14:02:40;9.90;99.90
42141;DHT22;27809;51.864;5.646;2023-12-20T14:05:06;9.90;99.90
42141;DHT22;27809;51.864;5.646;2023-12-20T14:07:31;9.90;99.90
42141;DHT22;27809;51.864;5.646;2023-12-20T14:10:04;9.90;99.90
42141;DHT22;27809;51.864;5.646;2023-12-20T14:12:31;10.00;99.90
42141;DHT22;27809;51.864;5.646;2023-12-20T14:14:57;10.00;99.90
42141;DHT22;27809;51.864;5.646;2023-12-20T14:17:23;10.00;99.90
42141;DHT22;27809;51.864;5.646;2023-12-20T14:19:48;10.00;99.60
42141;DHT22;27809;51.864;5.646;2023-12-20T14:22:14;10.00;98.40
42141;DHT22;27809;51.864;5.646;2023-12-20T14:24:42;10.00;98.10
42141;DHT22;27809;51.864;5.646;2023-12-20T14:27:08;10.10;97.60
42141;DHT22;27809;51.864;5.646;2023-12-20T14:29:34;10.10;96.90
42141;DHT22;27809;51.864;5.646;2023-12-20T14:32:00;10.10;96.60
42141;DHT22;27809;51.864;5.646;2023-12-20T14:34:28;10.00;96.40
42141;DHT22;27809;51.864;5.646;2023-12-20T14:36:53;10.00;96.10
42141;DHT22;27809;51.864;5.646;2023-12-20T14:39:19;10.00;95.90
42141;DHT22;27809;51.864;5.646;2023-12-20T14:41:45;9.90;95.90
42141;DHT22;27809;51.864;5.646;2023-12-20T14:44:10;9.90;96.10
42141;DHT22;27809;51.864;5.646;2023-12-20T14:46:36;9.90;96.30
42141;DHT22;27809;51.864;5.646;2023-12-20T14:49:01;9.90;97.00
42141;DHT22;27809;51.864;5.646;2023-12-20T14:51:28;9.90;97.20
42141;DHT22;27809;51.864;5.646;2023-12-20T14:53:53;9.90;97.30
42141;DHT22;27809;51.864;5.646;2023-12-20T14:56:19;9.90;97.30
42141;DHT22;27809;51.864;5.646;2023-12-20T14:58:45;9.90;97.20
42141;DHT22;27809;51.864;5.646;2023-12-20T15:01:12;9.80;97.30
42141;DHT22;27809;51.864;5.646;2023-12-20T15:03:38;9.80;97.40
42141;DHT22;27809;51.864;5.646;2023-12-20T15:06:05;9.80;97.50
42141;DHT22;27809;51.864;5.646;2023-12-20T15:08:31;9.70;97.60
42141;DHT22;27809;51.864;5.646;2023-12-20T15:10:57;9.70;97.80
42141;DHT22;27809;51.864;5.646;2023-12-20T15:13:24;9.60;97.80
42141;DHT22;27809;51.864;5.646;2023-12-20T15:15:49;9.60;98.00
42141;DHT22;27809;51.864;5.646;2023-12-20T15:18:15;9.60;98.20
42141;DHT22;27809;51.864;5.646;2023-12-20T15:20:40;9.60;98.00
42141;DHT22;27809;51.864;5.646;2023-12-20T15:23:07;9.50;98.00
42141;DHT22;27809;51.864;5.646;2023-12-20T15:25:33;9.50;98.20
42141;DHT22;27809;51.864;5.646;2023-12-20T15:27:59;9.50;98.70
42141;DHT22;27809;51.864;5.646;2023-12-20T15:30:24;9.50;99.10
42141;DHT22;27809;51.864;5.646;2023-12-20T15:32:51;9.40;99.30
42141;DHT22;27809;51.864;5.646;2023-12-20T15:35:16;9.40;99.50
42141;DHT22;27809;51.864;5.646;2023-12-20T15:37:42;9.40;99.80
42141;DHT22;27809;51.864;5.646;2023-12-20T15:40:08;9.30;99.90
42141;DHT22;27809;51.864;5.646;2023-12-20T15:42:40;9.30;99.90